KMSY/MSY METAR and TAF weather

Enter ICAO airport designator
Station Type Date Time Source
KMSY METAR 2019/02/21 15:53 UTC NOAA

KMSY 211553Z 00000KT 2SM BR OVC004 21/20 A2999 RMK AO2 SLP159 T02060200


Station Type Date Time Source
KMSY Decoded METAR 2019/02/21 15:53 UTC NOAA

NEW ORLEANS INTERNATIONAL AIRPORT, LA, United States (KMSY) 30-00N 90-15W 5M
Feb 21, 2019 - 10:53 AM EST / 2019.02.21 1553 UTC
Wind: Calm:0
Visibility: 2 mile(s):0
Sky conditions: overcast
Weather: mist
Temperature: 69.1 F (20.6 C)
Dew Point: 68.0 F (20.0 C)
Relative Humidity: 96%
Pressure (altimeter): 29.99 in. Hg (1015 hPa)
ob: KMSY 211553Z 00000KT 2SM BR OVC004 21/20 A2999 RMK AO2 SLP159 T02060200
cycle: 16

Station Type Date Time Source
KMSY TAF 2019/02/21 12:24 UTC NOAA

TAF KMSY 211121Z 2112/2218 VRB04KT 1/4SM FG VCSH OVC002
FM211500 09005KT 2SM BR VCSH OVC004
FM211800 15008KT 5SM BR VCSH OVC008
FM220900 15005KT 1/4SM FG OVC004
FM221400 15005KT 2SM BR OVC006
FM221700 16008KT 5SM BR OVC029


Example: see airport list